Time;durP1;ratioP1;P1;durP2;ratioP2;P2;SDS_P1;SDS_P2;PMS_P1;PMS_P2;Temp;Humidity;BMP_temperature;BMP_pressure;BME280_temperature;BME280_humidity;BME280_pressure;Samples;Min_cycle;Max_cycle;Signal;HPM_P1;HPM_P2
2022/11/26 00:00:56;;;;;;;22.30;3.73;;;;;;;;;;5072559;28;20173;-57
2022/11/26 00:03:22;;;;;;;21.70;3.57;;;;;;;;;;5072785;28;20199;-57
2022/11/26 00:05:53;;;;;;;20.47;2.90;;;10.60;99.90;;;;;;5072537;28;20177;-58
2022/11/26 00:08:29;;;;;;;22.87;3.43;;;10.70;99.90;;;;;;5072535;28;20700;-58
2022/11/26 00:10:55;;;;;;;22.43;3.57;;;;;;;;;;5072477;28;20172;-58
2022/11/26 00:13:24;;;;;;;25.07;4.03;;;10.50;99.90;;;;;;5072236;28;20172;-58
2022/11/26 00:15:51;;;;;;;22.57;3.10;;;;;;;;;;5072757;28;20180;-58
2022/11/26 00:18:17;;;;;;;25.73;3.67;;;;;;;;;;5072312;28;20176;-58
2022/11/26 00:20:44;;;;;;;23.47;3.57;;;10.50;99.90;;;;;;5072278;28;20168;-58
2022/11/26 00:23:21;;;;;;;25.20;3.87;;;10.50;99.90;;;;;;5072249;28;20181;-58
2022/11/26 00:25:56;;;;;;;32.67;3.90;;;10.70;99.90;;;;;;5071868;28;20610;-58
2022/11/26 00:28:22;;;;;;;23.30;3.43;;;;;;;;;;5072314;28;20200;-58
2022/11/26 00:30:48;;;;;;;22.97;3.63;;;;;;;;;;5072072;28;20180;-58
2022/11/26 00:33:14;;;;;;;16.27;3.23;;;10.50;99.90;;;;;;5070989;28;20218;-56
2022/11/26 00:35:40;;;;;;;20.73;3.40;;;;;;;;;;5071966;28;20686;-56
2022/11/26 00:38:06;;;;;;;25.67;3.97;;;;;;;;;;5071919;28;20255;-57
2022/11/26 00:40:32;;;;;;;16.33;3.10;;;10.30;99.90;;;;;;5071777;28;20667;-56
2022/11/26 00:42:58;;;;;;;21.83;3.87;;;10.60;99.90;;;;;;5071473;28;20224;-56
2022/11/26 00:45:27;;;;;;;26.37;3.67;;;10.30;99.90;;;;;;5071430;28;20505;-56
2022/11/26 00:47:53;;;;;;;28.13;4.03;;;;;;;;;;5071683;28;20257;-56
2022/11/26 00:50:22;;;;;;;20.03;3.40;;;10.10;99.90;;;;;;5071638;28;20172;-57
2022/11/26 00:52:51;;;;;;;30.03;4.27;;;8.80;99.90;;;;;;5071634;28;20176;-57
2022/11/26 00:55:39;;;;;;;24.70;3.37;;;10.20;99.90;;;;;;5071435;28;20177;-57
2022/11/26 00:58:08;;;;;;;30.40;4.20;;;10.00;99.90;;;;;;5071517;28;20188;-57
2022/11/26 01:00:35;;;;;;;22.23;3.23;;;;;;;;;;5071562;28;20184;-57
2022/11/26 01:03:01;;;;;;;21.10;4.50;;;10.00;99.90;;;;;;5071452;28;20199;-57
2022/11/26 01:05:29;;;;;;;19.77;3.90;;;9.90;99.90;;;;;;5071355;28;20176;-57
2022/11/26 01:07:57;;;;;;;29.87;4.10;;;10.00;99.90;;;;;;5071547;28;20212;-57
2022/11/26 01:10:25;;;;;;;22.33;3.43;;;10.10;99.90;;;;;;5071252;28;20246;-57
2022/11/26 01:12:52;;;;;;;29.97;4.30;;;10.00;99.90;;;;;;5071242;28;20185;-57
2022/11/26 01:15:20;;;;;;;31.00;4.20;;;11.60;99.90;;;;;;5071192;28;20160;-57
2022/11/26 01:17:46;;;;;;;29.27;4.37;;;10.10;99.90;;;;;;5071538;28;20591;-57
2022/11/26 01:20:20;;;;;;;31.67;4.17;;;10.00;99.90;;;;;;5073772;28;20211;-57
2022/11/26 01:22:46;;;;;;;28.43;3.30;;;;;;;;;;5071268;28;20186;-57
2022/11/26 01:25:12;;;;;;;30.27;3.87;;;;;;;;;;5071131;28;20180;-57
2022/11/26 01:27:38;;;;;;;28.63;3.70;;;;;;;;;;5070914;28;20204;-57
2022/11/26 01:30:21;;;;;;;22.87;3.30;;;10.20;99.90;;;;;;5071047;28;20203;-57
2022/11/26 01:32:48;;;;;;;31.00;3.63;;;10.20;99.90;;;;;;5070968;28;20255;-57
2022/11/26 01:35:15;;;;;;;22.47;3.40;;;10.20;99.90;;;;;;5071223;28;20206;-57
2022/11/26 01:37:42;;;;;;;22.27;2.77;;;10.10;99.90;;;;;;5070999;28;20241;-57
2022/11/26 01:40:25;;;;;;;22.80;4.37;;;10.20;99.90;;;;;;5071024;28;20176;-56
2022/11/26 01:43:26;;;;;;;22.70;3.73;;;10.40;99.90;;;;;;5070703;28;20240;-57
2022/11/26 01:45:52;;;;;;;24.83;2.73;;;10.80;99.90;;;;;;5066388;28;20192;-56
2022/11/26 01:48:32;;;;;;;34.53;3.57;;;10.20;99.90;;;;;;5070824;28;20230;-57
2022/11/26 01:51:04;;;;;;;22.17;3.50;;;10.50;99.90;;;;;;5070796;28;20254;-58
2022/11/26 01:53:36;;;;;;;23.40;3.27;;;10.70;99.90;;;;;;5070683;28;20176;-56
2022/11/26 01:56:16;;;;;;;24.53;3.73;;;10.60;99.90;;;;;;5070937;28;20177;-56
2022/11/26 01:58:46;;;;;;;27.40;4.07;;;10.60;99.90;;;;;;5070944;28;20200;-56
2022/11/26 02:01:12;;;;;;;23.97;3.13;;;10.60;99.90;;;;;;5070839;28;20230;-57
2022/11/26 02:04:18;;;;;;;30.40;4.03;;;10.70;99.90;;;;;;5070799;28;20259;-57
2022/11/26 02:06:47;;;;;;;26.43;3.93;;;10.60;99.90;;;;;;5059757;28;20216;-57
2022/11/26 02:09:13;;;;;;;30.63;3.70;;;10.60;99.90;;;;;;5070819;28;20643;-57
2022/11/26 02:11:39;;;;;;;26.07;3.40;;;10.50;99.90;;;;;;5070678;28;20655;-57
2022/11/26 02:14:18;;;;;;;27.70;3.93;;;10.80;99.90;;;;;;5070665;28;20171;-57
2022/11/26 02:17:02;;;;;;;19.27;3.00;;;10.50;99.90;;;;;;5070725;28;20180;-57
2022/11/26 02:19:28;;;;;;;28.00;3.97;;;;;;;;;;5070757;28;20291;-57
2022/11/26 02:22:29;;;;;;;20.17;3.30;;;10.20;99.90;;;;;;5070589;28;20200;-57
2022/11/26 02:25:05;;;;;;;21.97;3.60;;;10.40;99.90;;;;;;5039297;28;20199;-57
2022/11/26 02:27:55;;;;;;;23.57;2.83;;;10.60;99.90;;;;;;5070512;28;20265;-57
2022/11/26 02:30:21;;;;;;;28.10;3.37;;;;;;;;;;5070538;28;20169;-57
2022/11/26 02:33:00;;;;;;;27.50;3.50;;;10.60;99.90;;;;;;5070346;28;20542;-57
2022/11/26 02:35:57;;;;;;;26.87;3.90;;;10.40;99.90;;;;;;5070442;28;20277;-57
2022/11/26 02:38:29;;;;;;;17.33;2.90;;;10.50;99.90;;;;;;4999761;28;20187;-57
2022/11/26 02:40:55;;;;;;;24.00;3.30;;;10.20;99.90;;;;;;5070309;28;20173;-56
2022/11/26 02:43:22;;;;;;;26.00;4.03;;;10.50;99.90;;;;;;5070398;28;20177;-56
2022/11/26 02:46:00;;;;;;;27.33;3.13;;;10.50;99.90;;;;;;5070068;28;20550;-57
2022/11/26 02:48:32;;;;;;;26.83;3.13;;;10.90;99.90;;;;;;5070263;28;20172;-56
2022/11/26 02:51:08;;;;;;;28.37;3.27;;;10.50;99.90;;;;;;5069027;28;20187;-56
2022/11/26 02:53:35;;;;;;;31.30;3.27;;;10.60;99.90;;;;;;5070220;28;20706;-56
2022/11/26 02:56:15;;;;;;;22.33;3.50;;;10.40;99.90;;;;;;5071442;28;20261;-56
2022/11/26 02:58:41;;;;;;;21.57;2.93;;;;;;;;;;5073816;28;20173;-56
2022/11/26 03:01:12;;;;;;;25.63;3.97;;;10.50;99.90;;;;;;5073888;28;20177;-57
2022/11/26 03:03:49;;;;;;;22.33;3.57;;;10.20;99.90;;;;;;5073680;28;20656;-57
2022/11/26 03:06:17;;;;;;;20.33;2.97;;;10.40;99.90;;;;;;5073621;28;20200;-57
2022/11/26 03:08:44;;;;;;;27.97;3.80;;;10.70;99.90;;;;;;5073619;28;20701;-57
2022/11/26 03:11:10;;;;;;;26.93;3.67;;;;;;;;;;5073632;28;20181;-57
2022/11/26 03:13:35;;;;;;;24.20;3.47;;;10.60;99.90;;;;;;5073521;28;20180;-57
2022/11/26 03:16:01;;;;;;;33.90;4.67;;;10.60;99.90;;;;;;5073586;28;20180;-57
2022/11/26 03:18:27;;;;;;;41.63;4.80;;;;;;;;;;5072850;28;20524;-57
2022/11/26 03:20:53;;;;;;;26.23;3.47;;;10.60;99.90;;;;;;5076454;28;20675;-57
2022/11/26 03:23:18;;;;;;;21.20;3.57;;;10.80;99.90;;;;;;5073352;28;20265;-57
2022/11/26 03:25:44;;;;;;;24.80;3.43;;;;;;;;;;5073208;28;20639;-57
2022/11/26 03:28:10;;;;;;;27.40;4.33;;;;;;;;;;5073277;28;20587;-57
2022/11/26 03:30:36;;;;;;;20.67;3.13;;;10.40;99.90;;;;;;5073083;28;20183;-57
2022/11/26 03:33:01;;;;;;;26.73;3.33;;;10.50;99.90;;;;;;5072902;28;20184;-57
2022/11/26 03:35:27;;;;;;;27.20;3.67;;;10.30;99.90;;;;;;5072929;28;20176;-58
2022/11/26 03:37:53;;;;;;;24.57;3.20;;;;;;;;;;5072857;28;20230;-57
2022/11/26 03:40:19;;;;;;;26.90;4.33;;;10.50;99.90;;;;;;5073130;28;20165;-58
2022/11/26 03:42:45;;;;;;;42.27;4.70;;;;;;;;;;5073167;28;20694;-58
2022/11/26 03:45:11;;;;;;;28.53;3.90;;;10.60;99.90;;;;;;5072948;28;20693;-57
2022/11/26 03:47:38;;;;;;;34.30;4.47;;;10.50;99.90;;;;;;5072966;28;20201;-57
2022/11/26 03:50:05;;;;;;;30.17;3.70;;;10.50;99.90;;;;;;5072727;28;20198;-58
2022/11/26 03:52:31;;;;;;;23.40;2.97;;;;;;;;;;5072754;28;20712;-55
2022/11/26 03:54:57;;;;;;;30.20;4.07;;;10.50;99.90;;;;;;5072727;28;20646;-57
2022/11/26 03:57:23;;;;;;;30.60;3.33;;;;;;;;;;5072673;28;20165;-58
2022/11/26 03:59:48;;;;;;;22.60;3.67;;;10.30;99.90;;;;;;5072684;28;20215;-57
2022/11/26 04:02:14;;;;;;;31.23;3.93;;;;;;;;;;5072542;28;20165;-57
2022/11/26 04:04:40;;;;;;;33.37;3.73;;;;;;;;;;5072549;28;20168;-58
2022/11/26 04:07:06;;;;;;;28.57;3.60;;;;;;;;;;5072241;28;20213;-58
2022/11/26 04:09:32;;;;;;;16.13;2.43;;;;;;;;;;5072698;28;20245;-57
2022/11/26 04:11:59;;;;;;;25.23;3.03;;;;;;;;;;5072406;28;20177;-58
2022/11/26 04:14:24;;;;;;;27.67;4.27;;;10.00;99.90;;;;;;5072439;28;20628;-57
2022/11/26 04:16:50;;;;;;;39.83;3.73;;;10.00;99.90;;;;;;5072317;28;20222;-58
2022/11/26 04:19:16;;;;;;;34.43;3.87;;;10.20;99.90;;;;;;5072236;28;20631;-58
2022/11/26 04:21:41;;;;;;;25.63;3.07;;;10.30;99.90;;;;;;5072059;28;20177;-56
2022/11/26 04:24:08;;;;;;;32.23;3.30;;;10.50;99.90;;;;;;5071900;28;20169;-56
2022/11/26 04:26:33;;;;;;;26.73;3.23;;;10.30;99.90;;;;;;5071878;28;20258;-56
2022/11/26 04:28:59;;;;;;;24.90;3.50;;;10.40;99.90;;;;;;5071834;28;20569;-57
2022/11/26 04:31:25;;;;;;;28.33;3.53;;;;;;;;;;5071701;28;20641;-57
2022/11/26 04:33:51;;;;;;;36.37;4.67;;;10.40;99.90;;;;;;5071631;28;20204;-57
2022/11/26 04:36:16;;;;;;;19.90;2.50;;;10.40;99.90;;;;;;5071961;28;20212;-57
2022/11/26 04:38:42;;;;;;;15.27;2.60;;;;;;;;;;5071589;28;20172;-56
2022/11/26 04:41:08;;;;;;;27.43;2.90;;;;;;;;;;5071554;28;20224;-57
2022/11/26 04:43:34;;;;;;;20.97;2.87;;;;;;;;;;5071498;28;20741;-57
2022/11/26 04:46:00;;;;;;;23.50;2.53;;;;;;;;;;5071522;28;20234;-56
2022/11/26 04:48:26;;;;;;;40.93;3.47;;;10.80;99.90;;;;;;5071476;28;20682;-56
2022/11/26 04:50:52;;;;;;;25.60;3.30;;;;;;;;;;5071581;28;20193;-58
2022/11/26 04:53:20;;;;;;;31.60;3.37;;;10.90;99.90;;;;;;5071641;28;20182;-56
2022/11/26 04:55:50;;;;;;;28.93;3.40;;;10.90;99.90;;;;;;5071790;28;20181;-57
2022/11/26 04:58:17;;;;;;;29.10;3.43;;;10.80;99.90;;;;;;5071524;28;21044;-57
2022/11/26 05:00:44;;;;;;;30.27;3.23;;;;;;;;;;5071340;28;20179;-57
2022/11/26 05:03:10;;;;;;;25.67;3.43;;;;;;;;;;5071344;28;20173;-57
2022/11/26 05:05:36;;;;;;;29.00;2.97;;;10.60;99.90;;;;;;5071559;28;20176;-57
2022/11/26 05:08:01;;;;;;;26.87;3.50;;;10.20;99.90;;;;;;5071197;28;20733;-57
2022/11/26 05:10:27;;;;;;;24.60;3.83;;;10.10;99.90;;;;;;5071364;28;20168;-57
2022/11/26 05:12:53;;;;;;;36.93;3.30;;;;;;;;;;5071276;28;20705;-57
2022/11/26 05:15:19;;;;;;;29.27;3.83;;;10.70;99.90;;;;;;5071224;28;20168;-57
2022/11/26 05:17:45;;;;;;;23.97;3.33;;;;;;;;;;5070936;28;20173;-57
2022/11/26 05:20:11;;;;;;;27.23;3.40;;;10.20;99.90;;;;;;5073461;28;20203;-58
2022/11/26 05:22:37;;;;;;;28.97;2.90;;;;;;;;;;5071119;28;20222;-57
2022/11/26 05:25:03;;;;;;;19.63;2.47;;;;;;;;;;5071184;28;20601;-57
2022/11/26 05:27:28;;;;;;;30.87;3.00;;;10.60;99.90;;;;;;5071024;28;20236;-58
2022/11/26 05:29:54;;;;;;;27.33;3.83;;;;;;;;;;5071034;28;20258;-57
2022/11/26 05:32:20;;;;;;;30.53;3.23;;;;;;;;;;5070895;28;20176;-57
2022/11/26 05:34:46;;;;;;;30.90;2.93;;;;;;;;;;5070975;28;20173;-57
2022/11/26 05:37:12;;;;;;;29.10;3.37;;;;;;;;;;5071031;28;20180;-57
2022/11/26 05:39:38;;;;;;;29.60;3.30;;;;;;;;;;5071056;28;20173;-58
2022/11/26 05:42:05;;;;;;;28.40;3.07;;;;;;;;;;5070819;28;20219;-57
2022/11/26 05:44:31;;;;;;;31.73;3.70;;;;;;;;;;5070875;28;20172;-57
2022/11/26 05:46:57;;;;;;;34.10;3.00;;;10.40;99.90;;;;;;5070709;28;20204;-57
2022/11/26 05:49:23;;;;;;;31.93;3.43;;;;;;;;;;5070930;28;20173;-57
2022/11/26 05:51:48;;;;;;;29.07;3.50;;;10.50;99.90;;;;;;5070868;28;20168;-57
2022/11/26 05:54:14;;;;;;;38.30;3.63;;;10.60;99.90;;;;;;5070855;28;20635;-57
2022/11/26 05:56:41;;;;;;;30.60;3.43;;;10.60;99.90;;;;;;5070901;28;20173;-58
2022/11/26 05:59:07;;;;;;;35.47;4.50;;;10.90;99.90;;;;;;5070620;28;20196;-58
2022/11/26 06:01:32;;;;;;;21.60;2.80;;;10.20;99.90;;;;;;5070682;28;20180;-58
2022/11/26 06:03:58;;;;;;;25.07;3.13;;;10.40;99.90;;;;;;5070661;28;20160;-55
2022/11/26 06:06:24;;;;;;;39.10;3.40;;;10.30;99.90;;;;;;5070658;28;20204;-56
2022/11/26 06:08:49;;;;;;;33.37;4.07;;;10.50;99.90;;;;;;5070674;28;20579;-57
2022/11/26 06:11:15;;;;;;;29.03;3.40;;;;;;;;;;5070566;28;20168;-57
2022/11/26 06:13:41;;;;;;;41.60;3.70;;;;;;;;;;5070632;28;20165;-57
2022/11/26 06:16:07;;;;;;;27.57;3.03;;;10.20;99.90;;;;;;5070554;28;20165;-57
2022/11/26 06:18:33;;;;;;;32.80;3.43;;;;;;;;;;5070471;28;20246;-57
2022/11/26 06:21:01;;;;;;;23.70;3.33;;;10.60;99.90;;;;;;5070776;28;20177;-57
2022/11/26 06:23:27;;;;;;;32.40;3.27;;;;;;;;;;5070552;28;20177;-57
2022/11/26 06:25:53;;;;;;;32.73;3.20;;;;;;;;;;5070389;28;20242;-57
2022/11/26 06:28:18;;;;;;;24.83;2.70;;;10.40;99.90;;;;;;5070539;28;20555;-57
2022/11/26 06:30:45;;;;;;;28.23;3.30;;;10.40;99.90;;;;;;5071253;28;20184;-57
2022/11/26 06:33:11;;;;;;;27.73;2.53;;;;;;;;;;5074352;28;20233;-57
2022/11/26 06:35:36;;;;;;;23.20;3.10;;;10.40;99.90;;;;;;5074486;28;20171;-57
2022/11/26 06:38:02;;;;;;;29.77;3.20;;;10.50;99.90;;;;;;5074150;28;20169;-57
2022/11/26 06:40:28;;;;;;;25.10;3.37;;;;;;;;;;5074186;28;20797;-57
2022/11/26 06:42:54;;;;;;;30.40;3.30;;;;;;;;;;5073969;28;20222;-57
2022/11/26 06:45:21;;;;;;;25.93;2.97;;;10.60;99.90;;;;;;5074045;28;20203;-57
2022/11/26 06:47:49;;;;;;;31.70;3.03;;;10.60;99.90;;;;;;5073876;28;20208;-57
2022/11/26 06:50:16;;;;;;;32.77;3.30;;;10.70;99.90;;;;;;5073897;28;20546;-57
2022/11/26 06:52:42;;;;;;;32.07;3.53;;;;;;;;;;5073962;28;20267;-57
2022/11/26 06:55:08;;;;;;;24.33;2.37;;;10.70;99.90;;;;;;5073840;28;20196;-57
2022/11/26 06:57:34;;;;;;;27.10;2.87;;;;;;;;;;5073684;28;20200;-57
2022/11/26 06:59:59;;;;;;;23.73;3.10;;;10.80;99.90;;;;;;5073740;28;20523;-57
2022/11/26 07:02:25;;;;;;;27.33;3.60;;;;;;;;;;5073649;28;20244;-57
2022/11/26 07:04:51;;;;;;;16.90;2.73;;;10.80;99.90;;;;;;5073811;28;20180;-57
2022/11/26 07:07:17;;;;;;;17.10;2.83;;;;;;;;;;5073611;28;20243;-57
2022/11/26 07:09:43;;;;;;;18.50;2.93;;;;;;;;;;5073622;28;20610;-57
2022/11/26 07:12:09;;;;;;;23.93;3.43;;;;;;;;;;5073534;28;20165;-57
2022/11/26 07:14:35;;;;;;;15.30;2.63;;;10.60;99.90;;;;;;5073592;28;20476;-57
2022/11/26 07:17:01;;;;;;;24.23;2.67;;;;;;;;;;5073300;28;20208;-57
2022/11/26 07:19:27;;;;;;;17.00;2.77;;;;;;;;;;5073544;28;20177;-57
2022/11/26 07:21:53;;;;;;;22.33;3.00;;;;;;;;;;5075952;28;20184;-57
2022/11/26 07:24:18;;;;;;;28.77;3.57;;;11.00;99.90;;;;;;5073422;28;20173;-57
2022/11/26 07:26:44;;;;;;;13.77;2.13;;;;;;;;;;5055249;28;20309;-57
2022/11/26 07:29:10;;;;;;;18.20;2.50;;;11.00;99.90;;;;;;5073172;28;20269;-57
2022/11/26 07:31:36;;;;;;;18.90;2.77;;;11.20;99.90;;;;;;5073190;28;20165;-57
2022/11/26 07:34:01;;;;;;;15.83;2.30;;;11.30;99.90;;;;;;5073110;28;20298;-57
2022/11/26 07:36:29;;;;;;;25.30;3.90;;;11.10;99.90;;;;;;5055092;28;20179;-57
2022/11/26 07:38:59;;;;;;;15.83;2.23;;;11.20;99.90;;;;;;5073112;28;20187;-58
2022/11/26 07:41:26;;;;;;;23.17;2.80;;;11.30;99.90;;;;;;5072269;28;20212;-57
2022/11/26 07:43:52;;;;;;;20.47;2.80;;;11.30;99.90;;;;;;5072906;28;20192;-57
2022/11/26 07:46:21;;;;;;;25.37;3.03;;;11.80;99.90;;;;;;5072967;28;20208;-57
2022/11/26 07:48:47;;;;;;;19.97;2.47;;;;;;;;;;5072883;28;20279;-57
2022/11/26 07:51:19;;;;;;;20.07;2.17;;;11.50;99.90;;;;;;5072806;28;20631;-57
2022/11/26 07:53:46;;;;;;;17.87;2.80;;;11.60;99.90;;;;;;5072849;28;20289;-57
2022/11/26 07:56:12;;;;;;;24.93;3.03;;;;;;;;;;5072750;28;20177;-57
2022/11/26 07:58:38;;;;;;;23.07;3.13;;;11.40;99.90;;;;;;5073095;28;20175;-57
2022/11/26 08:01:12;;;;;;;24.33;3.13;;;11.50;99.90;;;;;;5072653;28;20533;-57
2022/11/26 08:03:44;;;;;;;21.00;2.70;;;11.50;99.90;;;;;;5072593;28;20244;-57
2022/11/26 08:06:12;;;;;;;20.13;3.10;;;11.50;99.90;;;;;;5072436;28;20247;-57
2022/11/26 08:08:38;;;;;;;20.23;2.93;;;;;;;;;;5072454;28;20259;-57
2022/11/26 08:11:14;;;;;;;28.40;3.43;;;11.50;99.90;;;;;;5072572;28;20286;-57
2022/11/26 08:13:40;;;;;;;27.13;3.37;;;;;;;;;;5072330;28;20172;-57
2022/11/26 08:16:06;;;;;;;17.17;2.67;;;;;;;;;;5072333;28;20219;-57
2022/11/26 08:18:32;;;;;;;25.83;3.07;;;;;;;;;;5072190;28;20179;-57
2022/11/26 08:20:59;;;;;;;19.97;3.33;;;;;;;;;;5072188;28;20189;-57
2022/11/26 08:23:25;;;;;;;24.87;3.07;;;;;;;;;;5072213;28;20172;-57
2022/11/26 08:25:51;;;;;;;30.97;3.33;;;;;;;;;;5072046;28;20177;-57
2022/11/26 08:28:18;;;;;;;33.27;3.50;;;11.90;99.90;;;;;;5072060;28;20181;-57
2022/11/26 08:30:43;;;;;;;25.17;2.93;;;12.20;99.90;;;;;;5071908;28;20547;-57
2022/11/26 08:33:09;;;;;;;20.80;3.00;;;;;;;;;;5072058;28;20176;-58
2022/11/26 08:35:35;;;;;;;19.00;2.80;;;12.30;99.90;;;;;;5071828;28;20512;-57
2022/11/26 08:38:01;;;;;;;17.67;2.37;;;;;;;;;;5071944;28;20173;-57
2022/11/26 08:40:27;;;;;;;28.40;3.63;;;12.70;99.90;;;;;;5071989;28;20177;-58
2022/11/26 08:42:52;;;;;;;19.57;2.43;;;13.00;99.90;;;;;;5071778;28;20709;-56
2022/11/26 08:45:18;;;;;;;26.20;3.33;;;;;;;;;;5071944;28;20521;-56
2022/11/26 08:47:44;;;;;;;26.30;3.03;;;12.80;99.90;;;;;;5071455;28;20324;-57
2022/11/26 08:50:10;;;;;;;22.57;3.27;;;12.90;99.90;;;;;;5071671;28;20585;-57
2022/11/26 08:52:37;;;;;;;20.30;3.00;;;;;;;;;;5071226;28;20196;-57
2022/11/26 08:55:03;;;;;;;21.77;3.03;;;12.30;99.90;;;;;;5070993;28;20199;-57
2022/11/26 08:57:29;;;;;;;29.10;3.10;;;;;;;;;;5071575;28;20201;-57
2022/11/26 08:59:55;;;;;;;28.63;3.33;;;;;;;;;;5071503;28;20210;-57
2022/11/26 09:02:22;;;;;;;23.00;3.17;;;12.00;99.90;;;;;;5053667;28;20179;-57
2022/11/26 09:04:47;;;;;;;23.50;3.20;;;11.90;99.90;;;;;;5071399;28;20703;-57
2022/11/26 09:07:14;;;;;;;21.37;3.30;;;;;;;;;;5071325;28;20291;-58
2022/11/26 09:09:40;;;;;;;34.40;3.90;;;;;;;;;;5071563;28;20164;-58
2022/11/26 09:12:06;;;;;;;31.17;3.60;;;12.40;99.90;;;;;;5071426;28;20181;-57
2022/11/26 09:14:37;;;;;;;20.53;2.70;;;12.30;99.90;;;;;;5071438;28;20164;-57
2022/11/26 09:17:03;;;;;;;32.07;3.87;;;;;;;;;;5071300;28;20181;-57
2022/11/26 09:19:29;;;;;;;27.20;3.50;;;12.10;99.90;;;;;;5071114;28;20508;-57
2022/11/26 09:21:55;;;;;;;21.97;3.37;;;12.30;99.90;;;;;;5073900;28;20184;-57
2022/11/26 09:24:21;;;;;;;30.23;3.93;;;12.30;99.90;;;;;;5071164;28;20173;-57
2022/11/26 09:26:47;;;;;;;28.77;3.10;;;12.40;99.90;;;;;;5071139;28;20212;-57
2022/11/26 09:29:15;;;;;;;20.73;3.03;;;12.30;99.90;;;;;;5071112;28;20180;-57
2022/11/26 09:31:43;;;;;;;30.97;3.47;;;12.30;99.90;;;;;;5071117;28;20226;-58
2022/11/26 09:34:09;;;;;;;20.07;2.63;;;;;;;;;;5071053;28;20198;-58
2022/11/26 09:36:35;;;;;;;33.00;3.10;;;12.30;99.90;;;;;;5071149;28;20255;-57
2022/11/26 09:39:00;;;;;;;22.93;3.00;;;12.60;99.90;;;;;;5071125;28;20569;-58
2022/11/26 09:41:29;;;;;;;17.97;2.87;;;12.20;99.90;;;;;;5070798;28;20295;-57
2022/11/26 09:44:13;;;;;;;28.73;3.27;;;11.90;99.90;;;;;;5070915;28;20180;-58
2022/11/26 09:47:16;;;;;;;22.80;2.93;;;12.00;99.90;;;;;;5052801;28;20208;-57
2022/11/26 09:50:07;;;;;;;19.83;3.17;;;12.10;99.90;;;;;;5070585;28;20674;-58
2022/11/26 09:52:41;;;;;;;25.83;2.97;;;12.30;99.90;;;;;;5070810;28;20173;-58
2022/11/26 09:55:17;;;;;;;20.57;2.47;;;12.30;99.90;;;;;;5070806;28;20721;-58
2022/11/26 09:57:58;;;;;;;31.20;3.77;;;12.10;99.90;;;;;;5070825;28;20176;-58
2022/11/26 10:00:30;;;;;;;23.93;3.57;;;12.10;99.90;;;;;;5070826;28;20200;-58
2022/11/26 10:02:57;;;;;;;20.37;3.27;;;12.90;99.90;;;;;;5070745;28;20168;-56
2022/11/26 10:05:37;;;;;;;24.80;3.03;;;12.10;99.90;;;;;;5072487;28;20311;-57
2022/11/26 10:08:20;;;;;;;25.87;3.20;;;11.80;99.90;;;;;;5074774;28;20640;-56
2022/11/26 10:11:11;;;;;;;30.03;3.67;;;12.60;99.90;;;;;;5056585;28;20176;-57
2022/11/26 10:13:50;;;;;;;25.70;3.50;;;12.30;99.90;;;;;;5074456;28;20169;-57
2022/11/26 10:16:37;;;;;;;21.87;4.00;;;12.20;99.90;;;;;;5074388;28;20222;-56
2022/11/26 10:19:11;;;;;;;27.90;3.67;;;12.20;99.90;;;;;;5074567;28;20184;-56
2022/11/26 10:21:41;;;;;;;21.10;3.47;;;12.40;99.90;;;;;;5074414;28;20179;-56
2022/11/26 10:24:22;;;;;;;25.87;3.13;;;12.60;99.90;;;;;;5074476;28;20215;-57
2022/11/26 10:26:48;;;;;;;22.93;3.03;;;12.30;99.90;;;;;;5074309;28;20713;-58
2022/11/26 10:29:38;;;;;;;26.00;3.63;;;12.70;99.90;;;;;;5074213;28;20199;-57
2022/11/26 10:32:19;;;;;;;21.57;3.67;;;12.30;99.90;;;;;;5056406;28;20173;-56
2022/11/26 10:34:56;;;;;;;26.60;3.03;;;12.80;99.90;;;;;;5074191;28;20658;-58
2022/11/26 10:37:24;;;;;;;30.67;3.60;;;12.70;99.90;;;;;;5073918;28;20173;-57
2022/11/26 10:40:09;;;;;;;27.67;3.50;;;12.70;99.90;;;;;;5073796;28;20183;-57
2022/11/26 10:42:43;;;;;;;23.07;3.00;;;12.70;99.90;;;;;;5073240;28;20215;-57
2022/11/26 10:45:21;;;;;;;31.63;3.53;;;12.80;99.90;;;;;;5074120;28;20168;-57
2022/11/26 10:47:47;;;;;;;19.20;3.20;;;12.90;99.90;;;;;;5074070;28;20215;-57
2022/11/26 10:50:23;;;;;;;23.17;4.13;;;12.80;99.90;;;;;;5074051;28;20171;-57
2022/11/26 10:52:51;;;;;;;24.67;3.67;;;12.70;99.90;;;;;;5073819;28;20187;-57
2022/11/26 10:55:31;;;;;;;18.87;3.07;;;13.20;99.90;;;;;;5073816;28;20169;-58
2022/11/26 10:58:02;;;;;;;26.10;3.03;;;12.60;99.90;;;;;;5073758;28;20222;-57
2022/11/26 11:00:30;;;;;;;20.03;3.53;;;13.00;99.90;;;;;;5073777;28;20235;-57
2022/11/26 11:02:57;;;;;;;28.97;3.27;;;13.00;99.90;;;;;;5073796;28;20233;-58
2022/11/26 11:05:23;;;;;;;19.70;3.17;;;13.10;99.90;;;;;;5073771;28;20246;-57
2022/11/26 11:07:52;;;;;;;25.00;3.83;;;12.90;99.90;;;;;;5073510;28;20703;-58
2022/11/26 11:10:24;;;;;;;24.73;2.70;;;12.90;99.90;;;;;;5073498;28;20252;-57
2022/11/26 11:12:58;;;;;;;18.07;2.87;;;13.00;99.90;;;;;;5073813;28;20238;-57
2022/11/26 11:15:27;;;;;;;27.53;3.30;;;13.10;99.90;;;;;;5073628;28;20217;-57
2022/11/26 11:18:03;;;;;;;30.33;3.50;;;13.10;99.90;;;;;;5072739;28;20239;-57
2022/11/26 11:20:35;;;;;;;17.90;2.60;;;12.90;99.90;;;;;;5073547;28;20197;-57
2022/11/26 11:23:17;;;;;;;12.13;2.53;;;13.00;99.90;;;;;;5076533;28;20188;-58
2022/11/26 11:26:29;;;;;;;23.50;2.47;;;13.00;99.90;;;;;;5073518;28;20195;-57
2022/11/26 11:28:57;;;;;;;21.27;3.40;;;13.20;99.90;;;;;;5069755;28;20200;-57
2022/11/26 11:31:25;;;;;;;22.70;2.77;;;13.20;99.90;;;;;;5073560;28;20430;-57
2022/11/26 11:34:11;;;;;;;23.13;2.80;;;13.20;99.90;;;;;;5073457;28;20171;-58
2022/11/26 11:36:36;;;;;;;21.60;2.90;;;13.10;99.90;;;;;;5073346;28;20164;-57
2022/11/26 11:39:02;;;;;;;24.17;3.13;;;13.10;99.90;;;;;;5073288;28;20200;-57
2022/11/26 11:41:38;;;;;;;12.60;1.80;;;13.20;99.90;;;;;;5073130;28;20217;-58
2022/11/26 11:44:22;;;;;;;19.90;2.60;;;13.30;99.90;;;;;;5073308;28;20168;-57
2022/11/26 11:47:25;;;;;;;23.23;2.80;;;12.90;99.90;;;;;;5072922;28;20188;-56
2022/11/26 11:50:32;;;;;;;27.33;3.73;;;13.30;99.90;;;;;;5072896;28;20172;-57
2022/11/26 11:53:16;;;;;;;19.50;2.90;;;13.20;99.90;;;;;;4991243;28;20282;-57
2022/11/26 11:56:02;;;;;;;33.37;3.17;;;13.20;99.90;;;;;;5069190;28;20204;-57
2022/11/26 11:58:28;;;;;;;25.87;3.50;;;13.20;99.90;;;;;;5072999;28;20329;-58
2022/11/26 12:01:21;;;;;;;18.03;2.73;;;13.20;99.90;;;;;;5072950;28;20165;-57
2022/11/26 12:03:49;;;;;;;15.33;2.57;;;13.20;99.90;;;;;;5072660;28;20172;-58
2022/11/26 12:06:20;;;;;;;17.53;3.00;;;13.10;99.90;;;;;;5072622;28;20170;-58
2022/11/26 12:08:57;;;;;;;20.73;2.60;;;13.20;99.90;;;;;;5072770;28;20210;-58
2022/11/26 12:11:34;;;;;;;21.47;2.87;;;13.10;99.90;;;;;;5072787;28;20164;-57
2022/11/26 12:14:12;;;;;;;15.23;2.80;;;13.10;99.90;;;;;;5072666;28;20183;-58
2022/11/26 12:16:41;;;;;;;25.37;2.90;;;13.10;99.90;;;;;;5072465;28;20268;-57
2022/11/26 12:19:33;;;;;;;21.60;3.40;;;13.20;99.90;;;;;;5072550;28;20184;-57
2022/11/26 12:22:37;;;;;;;23.70;2.90;;;13.20;99.90;;;;;;5072551;28;20203;-58
2022/11/26 12:25:19;;;;;;;32.93;3.57;;;13.00;99.90;;;;;;5072459;28;20645;-57
2022/11/26 12:27:47;;;;;;;25.07;3.10;;;13.10;99.90;;;;;;5072025;28;20215;-57
2022/11/26 12:30:20;;;;;;;10.67;1.33;;;13.10;99.90;;;;;;5072422;28;20184;-58
2022/11/26 12:33:01;;;;;;;24.07;2.97;;;13.10;99.90;;;;;;5072037;28;20177;-57
2022/11/26 12:35:38;;;;;;;27.30;3.53;;;13.20;99.90;;;;;;5071978;28;20533;-57
2022/11/26 12:38:27;;;;;;;27.07;3.20;;;13.20;99.90;;;;;;5072047;28;20164;-58
2022/11/26 12:41:00;;;;;;;24.60;3.10;;;13.20;99.90;;;;;;5071673;28;20172;-57
2022/11/26 12:43:35;;;;;;;29.30;3.63;;;13.20;99.90;;;;;;5071801;28;20179;-58
2022/11/26 12:46:14;;;;;;;27.37;2.83;;;13.00;99.90;;;;;;5071835;28;20641;-58
2022/11/26 12:49:02;;;;;;;27.77;3.27;;;13.10;99.90;;;;;;5072096;28;20643;-58
2022/11/26 12:51:35;;;;;;;20.47;2.80;;;13.00;99.90;;;;;;5057610;28;20180;-57
2022/11/26 12:54:04;;;;;;;23.07;3.87;;;13.10;99.90;;;;;;5071653;28;20192;-58
2022/11/26 12:57:02;;;;;;;23.23;3.37;;;13.10;99.90;;;;;;5071632;28;20180;-57
2022/11/26 12:59:52;;;;;;;21.47;3.40;;;13.10;99.90;;;;;;5071521;28;20243;-57
2022/11/26 13:02:30;;;;;;;20.03;2.90;;;13.00;99.90;;;;;;5071541;28;20218;-57
2022/11/26 13:04:57;;;;;;;19.53;2.77;;;13.10;99.90;;;;;;5071796;28;20187;-57
2022/11/26 13:07:47;;;;;;;21.67;2.77;;;13.00;99.90;;;;;;5071559;28;20223;-57
2022/11/26 13:10:35;;;;;;;20.57;3.37;;;12.90;99.90;;;;;;5071444;28;20207;-57
2022/11/26 13:13:39;;;;;;;26.83;2.40;;;13.00;99.90;;;;;;5071616;28;20230;-58
2022/11/26 13:16:15;;;;;;;22.37;3.13;;;13.00;99.90;;;;;;5053803;28;20189;-58
2022/11/26 13:18:46;;;;;;;24.70;2.90;;;12.60;99.90;;;;;;5071354;28;20182;-58
2022/11/26 13:21:27;;;;;;;25.87;3.13;;;13.10;99.90;;;;;;5071160;28;20223;-58
2022/11/26 13:24:26;;;;;;;20.23;2.73;;;13.10;99.90;;;;;;5074267;28;20188;-57